Time;durP1;ratioP1;P1;durP2;ratioP2;P2;SDS_P1;SDS_P2;PMS_P1;PMS_P2;Temp;Humidity;BMP_temperature;BMP_pressure;BME280_temperature;BME280_humidity;BME280_pressure;Samples;Min_cycle;Max_cycle;Signal;HPM_P1;HPM_P2
2023/04/06 00:01:39;;;;;;;3.90;3.60;;;3.20;99.90;;;;;;5027348;28;20081;-78
2023/04/06 00:04:06;;;;;;;4.27;3.87;;;3.20;99.90;;;;;;5032846;28;20053;-77
2023/04/06 00:06:31;;;;;;;2.72;2.53;;;3.20;99.90;;;;;;5039141;28;20120;-77
2023/04/06 00:08:57;;;;;;;3.77;3.37;;;3.20;99.90;;;;;;5026579;28;20127;-77
2023/04/06 00:11:23;;;;;;;10.60;3.30;;;3.10;99.90;;;;;;5025078;28;20080;-77
2023/04/06 00:13:49;;;;;;;2.40;2.30;;;3.20;99.90;;;;;;5008500;28;20523;-78
2023/04/06 00:16:14;;;;;;;1.73;1.70;;;3.10;99.90;;;;;;5037323;28;20477;-78
2023/04/06 00:18:40;;;;;;;5.83;4.27;;;3.10;99.90;;;;;;5025804;28;20053;-77
2023/04/06 00:21:06;;;;;;;3.83;2.80;;;3.10;99.90;;;;;;5041496;28;20041;-77
2023/04/06 00:23:32;;;;;;;2.80;2.60;;;3.10;99.90;;;;;;5040775;28;20102;-77
2023/04/06 00:25:57;;;;;;;2.53;2.33;;;3.10;99.90;;;;;;5027509;28;20064;-75
2023/04/06 00:28:25;;;;;;;4.50;3.00;;;3.00;99.90;;;;;;5034273;28;20094;-77
2023/04/06 00:30:53;;;;;;;3.42;2.53;;;3.00;99.90;;;;;;5033529;28;20059;-76
2023/04/06 00:33:20;;;;;;;2.43;2.23;;;3.00;99.90;;;;;;5039836;28;20049;-77
2023/04/06 00:35:45;;;;;;;3.97;3.67;;;2.90;99.90;;;;;;5043166;28;20060;-78
2023/04/06 00:38:12;;;;;;;2.77;2.57;;;2.90;99.90;;;;;;5044649;28;20407;-77
2023/04/06 00:40:39;;;;;;;4.00;2.87;;;2.90;99.90;;;;;;5045594;28;20165;-78
2023/04/06 00:43:10;;;;;;;2.40;2.03;;;2.90;99.90;;;;;;5045288;28;20080;-75
2023/04/06 00:45:37;;;;;;;3.17;2.95;;;2.90;99.90;;;;;;5045186;28;20040;-77
2023/04/06 00:48:03;;;;;;;3.30;2.20;;;2.90;99.90;;;;;;5033728;28;20502;-76
2023/04/06 00:50:29;;;;;;;3.50;3.13;;;2.90;99.90;;;;;;5023277;28;20042;-78
2023/04/06 00:52:55;;;;;;;2.10;1.93;;;2.90;99.90;;;;;;5024118;28;20518;-77
2023/04/06 00:55:21;;;;;;;3.57;2.40;;;2.80;99.90;;;;;;5025894;28;20037;-75
2023/04/06 00:57:47;;;;;;;3.60;3.37;;;2.80;99.90;;;;;;5024743;28;20084;-77
2023/04/06 01:00:13;;;;;;;2.57;2.37;;;2.90;99.90;;;;;;5034274;28;20053;-76
2023/04/06 01:02:39;;;;;;;2.83;2.63;;;2.80;99.90;;;;;;5044311;28;20212;-78
2023/04/06 01:05:05;;;;;;;3.17;2.87;;;2.80;99.90;;;;;;5042662;28;20048;-77
2023/04/06 01:07:31;;;;;;;4.47;2.43;;;2.80;99.90;;;;;;5043495;28;20040;-78
2023/04/06 01:09:57;;;;;;;2.20;2.10;;;2.70;99.90;;;;;;5043459;28;20428;-78
2023/04/06 01:12:24;;;;;;;1.90;1.70;;;2.80;99.90;;;;;;5044085;28;20049;-77
2023/04/06 01:14:49;;;;;;;2.77;2.30;;;2.70;99.90;;;;;;5027185;28;20041;-78
2023/04/06 01:17:15;;;;;;;3.80;3.40;;;2.70;99.90;;;;;;5024565;28;20131;-76
2023/04/06 01:19:41;;;;;;;4.40;2.20;;;2.70;99.90;;;;;;5024188;28;20483;-78
2023/04/06 01:22:06;;;;;;;2.93;2.73;;;2.70;99.90;;;;;;5024595;28;20084;-77
2023/04/06 01:24:32;;;;;;;3.33;3.13;;;2.70;99.90;;;;;;5024317;28;20479;-75
2023/04/06 01:26:58;;;;;;;3.90;3.20;;;2.70;99.90;;;;;;5025014;28;20053;-78
2023/04/06 01:29:24;;;;;;;6.47;3.50;;;2.70;99.90;;;;;;5026476;28;20442;-76
2023/04/06 01:31:50;;;;;;;4.27;3.37;;;2.70;99.90;;;;;;5040662;28;20503;-78
2023/04/06 01:34:16;;;;;;;5.20;3.27;;;2.70;99.90;;;;;;5043922;28;20033;-78
2023/04/06 01:36:42;;;;;;;3.03;2.83;;;2.70;99.90;;;;;;5043692;28;20205;-76
2023/04/06 01:39:07;;;;;;;2.87;2.60;;;2.60;99.90;;;;;;5043499;28;20475;-77
2023/04/06 01:41:33;;;;;;;4.60;3.33;;;2.70;99.90;;;;;;5044306;28;20117;-76
2023/04/06 01:43:58;;;;;;;3.97;3.50;;;2.60;99.90;;;;;;5044902;28;20049;-77
2023/04/06 01:46:24;;;;;;;2.63;2.43;;;2.60;99.90;;;;;;5043295;28;20045;-76
2023/04/06 01:48:50;;;;;;;2.03;1.93;;;2.60;99.90;;;;;;5038509;28;20049;-76
2023/04/06 01:51:16;;;;;;;2.50;2.40;;;2.60;99.90;;;;;;5042974;28;20483;-77
2023/04/06 01:53:41;;;;;;;2.53;2.40;;;2.60;99.90;;;;;;5026429;28;20045;-76
2023/04/06 01:56:07;;;;;;;6.47;3.27;;;2.50;99.90;;;;;;5028479;28;20400;-77
2023/04/06 01:58:33;;;;;;;6.90;3.63;;;2.50;99.90;;;;;;5024130;28;20510;-76
2023/04/06 02:00:58;;;;;;;2.57;2.37;;;2.50;99.90;;;;;;5024888;28;20137;-77
2023/04/06 02:03:24;;;;;;;2.63;1.90;;;2.50;99.90;;;;;;5038573;28;20535;-77
2023/04/06 02:05:49;;;;;;;1.47;1.37;;;2.50;99.90;;;;;;5023870;28;20392;-76
2023/04/06 02:08:15;;;;;;;2.93;2.70;;;2.50;99.90;;;;;;5035797;28;20111;-77
2023/04/06 02:10:40;;;;;;;5.63;3.67;;;2.50;99.90;;;;;;5042407;28;20049;-76
2023/04/06 02:13:06;;;;;;;3.47;3.17;;;2.40;99.90;;;;;;5043123;28;20041;-78
2023/04/06 02:15:32;;;;;;;2.87;2.70;;;2.50;99.90;;;;;;5042131;28;20561;-77
2023/04/06 02:17:58;;;;;;;3.00;2.33;;;2.50;99.90;;;;;;5042892;28;20045;-75
2023/04/06 02:20:24;;;;;;;4.00;2.87;;;2.40;99.90;;;;;;5043690;28;20624;-77
2023/04/06 02:22:49;;;;;;;2.50;2.30;;;2.40;99.90;;;;;;5026780;28;20056;-76
2023/04/06 02:25:15;;;;;;;2.27;2.17;;;2.40;99.90;;;;;;5042110;28;20037;-77
2023/04/06 02:27:41;;;;;;;2.17;2.00;;;2.40;99.90;;;;;;5042500;28;20123;-76
2023/04/06 02:30:07;;;;;;;2.50;2.40;;;2.30;99.90;;;;;;5044139;28;20045;-77
2023/04/06 02:32:33;;;;;;;3.33;3.13;;;2.40;99.90;;;;;;5043529;28;20040;-77
2023/04/06 02:34:58;;;;;;;3.83;3.47;;;2.30;99.90;;;;;;5043135;28;20048;-77
2023/04/06 02:37:24;;;;;;;4.73;2.80;;;2.30;99.90;;;;;;5025129;28;20048;-77
2023/04/06 02:39:50;;;;;;;6.27;2.33;;;2.30;99.90;;;;;;5024161;28;20079;-76
2023/04/06 02:42:16;;;;;;;2.13;2.03;;;2.30;99.90;;;;;;5023859;28;20474;-78
2023/04/06 02:44:42;;;;;;;4.03;2.23;;;2.30;99.90;;;;;;5022515;28;20055;-76
2023/04/06 02:47:08;;;;;;;2.20;2.10;;;2.30;99.90;;;;;;5027801;28;20049;-75
2023/04/06 02:49:33;;;;;;;3.13;3.00;;;2.20;99.90;;;;;;5038334;28;20037;-77
2023/04/06 02:51:59;;;;;;;2.57;2.37;;;2.20;99.90;;;;;;5022613;28;20053;-77
2023/04/06 02:54:25;;;;;;;2.80;2.47;;;2.20;99.90;;;;;;5022590;28;20050;-78
2023/04/06 02:56:51;;;;;;;4.10;2.20;;;2.20;99.90;;;;;;5006108;28;20046;-77
2023/04/06 02:59:16;;;;;;;4.37;2.23;;;2.20;99.90;;;;;;5022713;28;20081;-78
2023/04/06 03:01:42;;;;;;;2.27;2.07;;;2.20;99.90;;;;;;5029253;28;20604;-77
2023/04/06 03:04:07;;;;;;;7.73;3.80;;;2.20;99.90;;;;;;5042314;28;20132;-76
2023/04/06 03:06:33;;;;;;;3.17;2.93;;;2.10;99.90;;;;;;5041298;28;20575;-77
2023/04/06 03:08:58;;;;;;;2.40;2.03;;;2.10;99.90;;;;;;5042996;28;20175;-77
2023/04/06 03:11:26;;;;;;;2.63;2.43;;;2.20;99.90;;;;;;5044025;28;20045;-77
2023/04/06 03:13:51;;;;;;;2.03;1.90;;;2.20;99.90;;;;;;5041116;28;20136;-77
2023/04/06 03:16:17;;;;;;;2.60;2.40;;;2.20;99.90;;;;;;5038839;28;20136;-75
2023/04/06 03:18:44;;;;;;;3.70;3.40;;;2.10;99.90;;;;;;5043278;28;20038;-76
2023/04/06 03:21:10;;;;;;;2.33;2.17;;;2.10;99.90;;;;;;5041104;28;20052;-77
2023/04/06 03:23:35;;;;;;;2.93;2.73;;;2.00;99.90;;;;;;5045708;28;20067;-77
2023/04/06 03:26:02;;;;;;;1.97;1.87;;;2.00;99.90;;;;;;5046819;28;20103;-77
2023/04/06 03:28:28;;;;;;;2.00;1.90;;;2.00;99.90;;;;;;5044935;28;20129;-76
2023/04/06 03:30:53;;;;;;;3.80;3.50;;;2.00;99.90;;;;;;5044464;28;20040;-78
2023/04/06 03:33:19;;;;;;;2.77;2.57;;;2.00;99.90;;;;;;5029483;28;20048;-75
2023/04/06 03:35:44;;;;;;;3.10;2.80;;;2.00;99.90;;;;;;5026192;28;20482;-77
2023/04/06 03:38:10;;;;;;;3.00;2.10;;;1.90;99.90;;;;;;5026780;28;20085;-77
2023/04/06 03:40:36;;;;;;;3.00;2.80;;;1.90;99.90;;;;;;5025547;28;20455;-77
2023/04/06 03:43:01;;;;;;;3.03;2.73;;;1.90;99.90;;;;;;5030291;28;20072;-77
2023/04/06 03:45:27;;;;;;;3.30;3.00;;;1.90;99.90;;;;;;5042772;28;20033;-75
2023/04/06 03:47:52;;;;;;;3.23;2.97;;;1.90;99.90;;;;;;5034420;28;20068;-75
2023/04/06 03:50:18;;;;;;;2.40;1.60;;;1.90;99.90;;;;;;5025575;28;20049;-76
2023/04/06 03:52:43;;;;;;;1.80;1.70;;;1.90;99.90;;;;;;5026461;28;20442;-77
2023/04/06 03:55:09;;;;;;;2.83;2.63;;;1.90;99.90;;;;;;5025168;28;20133;-77
2023/04/06 03:57:35;;;;;;;3.73;3.53;;;1.90;99.90;;;;;;5030107;28;20488;-77
2023/04/06 04:00:00;;;;;;;3.87;2.30;;;1.90;99.90;;;;;;5038709;28;20044;-77
2023/04/06 04:02:26;;;;;;;1.63;1.57;;;1.90;99.90;;;;;;5045859;28;20045;-77
2023/04/06 04:04:51;;;;;;;3.83;3.53;;;1.90;99.90;;;;;;5044975;28;20503;-76
2023/04/06 04:07:17;;;;;;;20.93;3.13;;;1.90;99.90;;;;;;5046076;28;20036;-76
2023/04/06 04:09:42;;;;;;;3.27;2.53;;;1.90;99.90;;;;;;5046247;28;20033;-77
2023/04/06 04:12:08;;;;;;;5.10;2.93;;;1.90;99.90;;;;;;5027659;28;20476;-77
2023/04/06 04:14:34;;;;;;;2.97;2.77;;;1.90;99.90;;;;;;5026439;28;20400;-77
2023/04/06 04:16:59;;;;;;;3.23;3.07;;;1.90;99.90;;;;;;5026075;28;20110;-78
2023/04/06 04:19:25;;;;;;;2.80;2.13;;;1.90;99.90;;;;;;5034535;28;20033;-76
2023/04/06 04:21:51;;;;;;;4.27;3.87;;;1.90;99.90;;;;;;5045520;28;20064;-78
2023/04/06 04:24:16;;;;;;;3.87;2.67;;;1.80;99.90;;;;;;5026877;28;20673;-77
2023/04/06 04:26:42;;;;;;;3.20;2.87;;;1.80;99.90;;;;;;5044563;28;20124;-77
2023/04/06 04:29:07;;;;;;;4.57;4.23;;;1.80;99.90;;;;;;5044626;28;20048;-78
2023/04/06 04:31:33;;;;;;;3.87;3.57;;;1.80;99.90;;;;;;5045889;28;20491;-77
2023/04/06 04:33:59;;;;;;;5.20;3.47;;;1.80;99.90;;;;;;5045114;28;20459;-78
2023/04/06 04:36:26;;;;;;;3.90;3.07;;;1.80;99.90;;;;;;5043517;28;20041;-77
2023/04/06 04:38:52;;;;;;;5.17;4.47;;;1.80;99.90;;;;;;5043427;28;20106;-75
2023/04/06 04:41:17;;;;;;;4.67;3.07;;;1.80;99.90;;;;;;5045492;28;20049;-77
2023/04/06 04:43:44;;;;;;;3.13;2.93;;;1.80;99.90;;;;;;5044117;28;20044;-75
2023/04/06 04:46:09;;;;;;;3.97;3.67;;;1.80;99.90;;;;;;5045690;28;20048;-77
2023/04/06 04:48:35;;;;;;;4.20;3.37;;;1.80;99.90;;;;;;5028762;28;20504;-77
2023/04/06 04:51:01;;;;;;;2.07;1.87;;;1.80;99.90;;;;;;5039194;28;20045;-76
2023/04/06 04:53:27;;;;;;;5.80;3.73;;;1.90;99.90;;;;;;5041061;28;20052;-77
2023/04/06 04:55:52;;;;;;;3.07;2.73;;;1.90;99.90;;;;;;5066047;28;20040;-77
2023/04/06 04:58:19;;;;;;;2.30;2.20;;;1.80;99.90;;;;;;5050123;28;20079;-76
2023/04/06 05:00:48;;;;;;;4.43;3.67;;;1.90;99.90;;;;;;5043491;28;20132;-76
2023/04/06 05:03:20;;;;;;;3.33;2.60;;;1.90;99.90;;;;;;5037581;28;20079;-77
2023/04/06 05:05:45;;;;;;;4.22;3.83;;;1.90;99.90;;;;;;5034070;28;20127;-75
2023/04/06 05:08:12;;;;;;;4.40;3.00;;;1.90;99.90;;;;;;5041013;28;20136;-74
2023/04/06 05:10:37;;;;;;;5.70;3.00;;;1.90;99.90;;;;;;5039967;28;20495;-74
2023/04/06 05:13:03;;;;;;;2.80;2.63;;;1.90;99.90;;;;;;5042716;28;20067;-74
2023/04/06 05:15:29;;;;;;;3.23;2.77;;;1.90;99.90;;;;;;5007739;28;20041;-75
2023/04/06 05:17:54;;;;;;;5.13;4.10;;;1.90;99.90;;;;;;5027870;28;20652;-74
2023/04/06 05:20:20;;;;;;;3.47;3.23;;;1.90;99.90;;;;;;5034903;28;20508;-74
2023/04/06 05:22:45;;;;;;;4.00;3.80;;;1.90;99.90;;;;;;5023693;28;20518;-74
2023/04/06 05:25:11;;;;;;;4.13;3.80;;;2.00;99.90;;;;;;5044883;28;20106;-74
2023/04/06 05:27:37;;;;;;;4.80;4.17;;;2.00;99.90;;;;;;5044414;28;20056;-73
2023/04/06 05:30:03;;;;;;;2.63;2.43;;;2.00;99.90;;;;;;5041532;28;20041;-76
2023/04/06 05:32:29;;;;;;;4.63;2.20;;;2.00;99.90;;;;;;5030131;28;20037;-75
2023/04/06 05:34:55;;;;;;;2.33;2.23;;;2.10;99.90;;;;;;5037330;28;20411;-74
2023/04/06 05:37:21;;;;;;;4.50;4.20;;;2.10;99.90;;;;;;5014024;28;20050;-75
2023/04/06 05:39:46;;;;;;;2.37;2.17;;;2.20;99.90;;;;;;5008180;28;20049;-72
2023/04/06 05:42:12;;;;;;;9.10;2.37;;;2.20;99.90;;;;;;5021938;28;20047;-74
2023/04/06 05:44:38;;;;;;;4.57;3.60;;;2.20;99.90;;;;;;5021172;28;20104;-75
2023/04/06 05:47:04;;;;;;;3.93;3.63;;;2.20;99.90;;;;;;5038944;28;20069;-75
2023/04/06 05:49:29;;;;;;;3.20;3.00;;;2.30;99.90;;;;;;5022191;28;20118;-74
2023/04/06 05:51:55;;;;;;;3.87;3.60;;;2.30;99.90;;;;;;5022405;28;20049;-74
2023/04/06 05:54:21;;;;;;;5.63;2.90;;;2.30;99.90;;;;;;5022824;28;20124;-75
2023/04/06 05:56:46;;;;;;;3.93;3.60;;;2.40;99.90;;;;;;5028931;28;20052;-74
2023/04/06 05:59:12;;;;;;;4.93;4.30;;;2.40;99.90;;;;;;5041999;28;20124;-77
2023/04/06 06:01:38;;;;;;;5.80;5.30;;;2.50;99.90;;;;;;5041537;28;20052;-75
2023/04/06 06:04:03;;;;;;;3.23;3.03;;;2.50;99.90;;;;;;5032141;28;20049;-75
2023/04/06 06:06:30;;;;;;;4.40;4.10;;;2.50;99.90;;;;;;5033090;28;20045;-77
2023/04/06 06:08:58;;;;;;;3.87;3.60;;;2.50;99.90;;;;;;5027264;28;20479;-73
2023/04/06 06:11:25;;;;;;;3.83;3.63;;;2.60;99.90;;;;;;5023459;28;20116;-74
2023/04/06 06:13:50;;;;;;;3.67;3.37;;;2.60;99.90;;;;;;5025316;28;20261;-76
2023/04/06 06:16:18;;;;;;;2.93;2.57;;;2.60;99.90;;;;;;5029302;28;20076;-74
2023/04/06 06:18:43;;;;;;;8.83;5.40;;;2.60;99.90;;;;;;5042809;28;20091;-72
2023/04/06 06:21:11;;;;;;;4.40;4.00;;;2.70;99.90;;;;;;5041102;28;20037;-72
2023/04/06 06:23:36;;;;;;;4.83;4.43;;;2.70;99.90;;;;;;5042097;28;20045;-75
2023/04/06 06:26:02;;;;;;;2.97;2.67;;;2.70;99.90;;;;;;5043072;28;20047;-76
2023/04/06 06:28:28;;;;;;;3.97;3.67;;;2.80;99.90;;;;;;5042261;28;20033;-75
2023/04/06 06:30:53;;;;;;;4.07;3.87;;;2.80;99.90;;;;;;5043199;28;20399;-75
2023/04/06 06:33:19;;;;;;;6.67;4.70;;;2.90;99.90;;;;;;5042683;28;20374;-76
2023/04/06 06:35:45;;;;;;;3.67;3.40;;;2.90;99.90;;;;;;5023965;28;20060;-75
2023/04/06 06:38:10;;;;;;;4.67;4.17;;;3.00;99.90;;;;;;5042729;28;20395;-76
2023/04/06 06:40:36;;;;;;;5.27;4.23;;;3.00;99.90;;;;;;5042251;28;20047;-74
2023/04/06 06:43:02;;;;;;;5.33;4.10;;;3.00;99.90;;;;;;5043050;28;20048;-76
2023/04/06 06:45:29;;;;;;;5.63;3.97;;;3.10;99.90;;;;;;5042146;28;20678;-72
2023/04/06 06:47:55;;;;;;;6.20;5.57;;;3.10;99.90;;;;;;5030702;28;20045;-74
2023/04/06 06:50:20;;;;;;;3.20;3.00;;;3.20;99.90;;;;;;5022128;28;20041;-76
2023/04/06 06:52:46;;;;;;;3.97;3.50;;;3.20;99.90;;;;;;5021771;28;20045;-74
2023/04/06 06:55:11;;;;;;;3.90;3.60;;;3.40;99.90;;;;;;5022648;28;20041;-76
2023/04/06 06:57:38;;;;;;;10.43;5.20;;;3.40;99.90;;;;;;5025987;28;20565;-76
2023/04/06 07:00:05;;;;;;;6.90;4.67;;;3.50;99.90;;;;;;5025064;28;20079;-75
2023/04/06 07:02:31;;;;;;;3.80;3.60;;;3.60;99.90;;;;;;5026216;28;20045;-76
2023/04/06 07:04:56;;;;;;;5.27;4.13;;;3.80;99.90;;;;;;5023861;28;20124;-76
2023/04/06 07:07:22;;;;;;;5.13;4.73;;;3.90;99.90;;;;;;5026615;28;20052;-75
2023/04/06 07:09:48;;;;;;;4.37;4.07;;;4.00;99.90;;;;;;5026198;28;20048;-76
2023/04/06 07:12:13;;;;;;;6.57;3.97;;;4.00;99.90;;;;;;5026303;28;20045;-75
2023/04/06 07:14:39;;;;;;;4.07;3.77;;;4.10;99.90;;;;;;5025664;28;20135;-76
2023/04/06 07:17:04;;;;;;;4.37;3.90;;;4.20;99.90;;;;;;5025883;28;20427;-76
2023/04/06 07:19:30;;;;;;;5.07;4.63;;;4.30;99.90;;;;;;5025226;28;20494;-76
2023/04/06 07:21:56;;;;;;;4.57;3.60;;;4.30;99.90;;;;;;5026061;28;20400;-76
2023/04/06 07:24:21;;;;;;;4.30;4.00;;;4.30;99.90;;;;;;5026551;28;20069;-74
2023/04/06 07:26:47;;;;;;;6.17;4.70;;;4.30;99.90;;;;;;5025806;28;20041;-76
2023/04/06 07:29:12;;;;;;;4.70;4.27;;;4.40;99.90;;;;;;5025877;28;20419;-75
2023/04/06 07:31:38;;;;;;;6.13;5.50;;;4.40;99.90;;;;;;5025667;28;20037;-75
2023/04/06 07:34:04;;;;;;;3.97;3.53;;;4.40;99.90;;;;;;5023614;28;20049;-76
2023/04/06 07:36:29;;;;;;;4.22;3.80;;;4.40;99.90;;;;;;5025629;28;20048;-76
2023/04/06 07:38:55;;;;;;;4.80;3.60;;;4.40;99.90;;;;;;5025424;28;20056;-75
2023/04/06 07:41:21;;;;;;;3.92;3.63;;;4.50;99.90;;;;;;5026003;28;20053;-74
2023/04/06 07:43:46;;;;;;;4.43;4.13;;;4.50;99.90;;;;;;5025587;28;20041;-76
2023/04/06 07:46:12;;;;;;;4.93;4.50;;;4.60;99.90;;;;;;5025373;28;20427;-75
2023/04/06 07:48:38;;;;;;;5.82;4.30;;;4.60;99.90;;;;;;5042391;28;20071;-75
2023/04/06 07:51:04;;;;;;;4.80;4.43;;;4.70;99.90;;;;;;5044126;28;20045;-77
2023/04/06 07:53:30;;;;;;;5.47;5.00;;;4.70;99.90;;;;;;5044991;28;20063;-75
2023/04/06 07:55:58;;;;;;;5.32;4.82;;;4.80;99.90;;;;;;5045602;28;20179;-77
2023/04/06 07:58:23;;;;;;;4.90;3.67;;;4.80;99.90;;;;;;5045341;28;20188;-76
2023/04/06 08:00:49;;;;;;;4.10;3.63;;;4.80;99.90;;;;;;5045110;28;20090;-75
2023/04/06 08:03:16;;;;;;;3.95;3.15;;;4.90;99.90;;;;;;5044945;28;20415;-76
2023/04/06 08:05:42;;;;;;;6.18;4.10;;;5.00;99.90;;;;;;5043337;28;20531;-76
2023/04/06 08:08:08;;;;;;;5.35;5.03;;;5.10;99.90;;;;;;5044963;28;20037;-76
2023/04/06 08:10:34;;;;;;;3.90;3.65;;;5.20;99.90;;;;;;5044590;28;20056;-76
2023/04/06 08:13:00;;;;;;;4.57;4.18;;;5.20;99.90;;;;;;5043711;28;20110;-75
2023/04/06 08:15:26;;;;;;;6.15;4.85;;;5.30;99.90;;;;;;5045346;28;20484;-75
2023/04/06 08:17:51;;;;;;;6.53;5.15;;;5.40;99.90;;;;;;5026947;28;20574;-76
2023/04/06 08:20:20;;;;;;;4.57;4.18;;;5.50;99.90;;;;;;5043804;28;20037;-76
2023/04/06 08:22:46;;;;;;;6.93;3.80;;;5.60;99.90;;;;;;5044821;28;20060;-76
2023/04/06 08:25:11;;;;;;;9.68;3.92;;;5.80;99.90;;;;;;5044762;28;20515;-75
2023/04/06 08:27:37;;;;;;;5.15;4.85;;;5.90;99.90;;;;;;5044846;28;20056;-77
2023/04/06 08:30:02;;;;;;;5.65;5.28;;;6.00;99.90;;;;;;5044362;28;20099;-76
2023/04/06 08:32:28;;;;;;;4.80;4.30;;;6.10;99.90;;;;;;5043274;28;20411;-75
2023/04/06 08:34:55;;;;;;;5.03;4.65;;;6.20;99.90;;;;;;5044177;28;20617;-76
2023/04/06 08:37:21;;;;;;;3.38;3.10;;;6.20;99.90;;;;;;5044712;28;20477;-75
2023/04/06 08:39:46;;;;;;;5.40;3.67;;;6.30;99.90;;;;;;5044560;28;20033;-76
2023/04/06 08:42:20;;;;;;;6.15;4.97;;;6.40;99.90;;;;;;5044161;28;20290;-76
2023/04/06 08:44:46;;;;;;;4.43;4.03;;;6.40;99.90;;;;;;5043825;28;20957;-75
2023/04/06 08:47:12;;;;;;;4.72;4.32;;;6.50;99.90;;;;;;5038378;28;20063;-75
2023/04/06 08:49:38;;;;;;;5.20;4.63;;;6.60;99.90;;;;;;5023070;28;20052;-74
2023/04/06 08:52:07;;;;;;;4.45;4.05;;;6.70;99.90;;;;;;5024144;28;20246;-76
2023/04/06 08:54:33;;;;;;;5.15;3.65;;;6.70;99.90;;;;;;5024016;28;20084;-74
2023/04/06 08:57:00;;;;;;;4.43;3.67;;;6.80;99.90;;;;;;5006563;28;20135;-77
2023/04/06 08:59:25;;;;;;;5.47;3.45;;;6.90;99.90;;;;;;5023766;28;20291;-75
2023/04/06 09:01:52;;;;;;;4.43;4.03;;;6.90;99.90;;;;;;5024428;28;20444;-75
2023/04/06 09:04:18;;;;;;;6.80;4.50;;;7.00;99.90;;;;;;5021739;28;20523;-76
2023/04/06 09:06:44;;;;;;;7.13;4.53;;;7.00;99.90;;;;;;5023763;28;20269;-76
2023/04/06 09:09:09;;;;;;;5.70;4.28;;;7.10;99.90;;;;;;5025880;28;20041;-77
2023/04/06 09:11:46;;;;;;;6.25;5.38;;;7.20;99.90;;;;;;5026860;28;20060;-76
2023/04/06 09:14:11;;;;;;;8.98;4.35;;;7.30;99.90;;;;;;5044336;28;20380;-76
2023/04/06 09:16:42;;;;;;;7.72;6.25;;;7.30;99.90;;;;;;5027302;28;20127;-76
2023/04/06 09:19:08;;;;;;;8.80;6.63;;;7.40;99.90;;;;;;5039156;28;20037;-76
2023/04/06 09:21:34;;;;;;;7.45;5.35;;;7.50;99.90;;;;;;5043900;28;20049;-77
2023/04/06 09:24:00;;;;;;;5.40;4.90;;;7.60;99.90;;;;;;5041442;28;20045;-76
2023/04/06 09:26:27;;;;;;;8.68;4.95;;;7.60;99.90;;;;;;5041606;28;20080;-76
2023/04/06 09:29:01;;;;;;;9.63;5.30;;;7.70;99.90;;;;;;5036459;28;20037;-77
2023/04/06 09:31:32;;;;;;;6.95;5.05;;;7.80;99.90;;;;;;5043326;28;20525;-77
2023/04/06 09:34:00;;;;;;;10.60;7.03;;;7.80;99.90;;;;;;5042994;28;20395;-77
2023/04/06 09:36:33;;;;;;;5.35;4.85;;;7.90;99.90;;;;;;5042780;28;20571;-75
2023/04/06 09:39:01;;;;;;;5.53;4.38;;;8.00;99.90;;;;;;5034613;28;20044;-76
2023/04/06 09:41:36;;;;;;;5.43;4.68;;;8.00;99.90;;;;;;5021955;28;20049;-76
2023/04/06 09:44:10;;;;;;;12.45;7.00;;;8.10;99.90;;;;;;5032517;28;20044;-76
2023/04/06 09:46:41;;;;;;;7.93;4.10;;;8.10;99.90;;;;;;5042050;28;20063;-77
2023/04/06 09:49:08;;;;;;;6.75;5.00;;;8.10;99.90;;;;;;5030518;28;20558;-75
2023/04/06 09:51:38;;;;;;;7.32;4.90;;;8.20;99.90;;;;;;5042820;28;20069;-75
2023/04/06 09:54:05;;;;;;;6.72;5.03;;;8.30;99.90;;;;;;5043531;28;20434;-74
2023/04/06 09:56:37;;;;;;;4.88;4.32;;;8.30;99.90;;;;;;5043200;28;20037;-76
2023/04/06 09:59:11;;;;;;;5.30;4.68;;;8.40;99.90;;;;;;5043753;28;20041;-77
2023/04/06 10:01:38;;;;;;;8.35;5.47;;;8.50;99.90;;;;;;5043367;28;20129;-76
2023/04/06 10:04:17;;;;;;;7.40;5.97;;;8.60;99.90;;;;;;5037645;28;20049;-76
2023/04/06 10:06:47;;;;;;;6.50;4.53;;;8.60;99.90;;;;;;5021895;28;20103;-74
2023/04/06 10:09:14;;;;;;;10.10;5.78;;;8.70;99.90;;;;;;5024252;28;20369;-75
2023/04/06 10:11:41;;;;;;;8.13;5.38;;;8.80;99.90;;;;;;5021764;28;20072;-77
2023/04/06 10:14:07;;;;;;;10.70;5.97;;;8.90;99.90;;;;;;5035843;28;20068;-74
2023/04/06 10:16:33;;;;;;;9.85;4.78;;;8.90;99.90;;;;;;5039398;28;20117;-76
2023/04/06 10:19:09;;;;;;;6.88;5.68;;;9.00;99.90;;;;;;5008831;28;20374;-75
2023/04/06 10:21:36;;;;;;;6.45;4.18;;;9.00;99.90;;;;;;5037988;28;20049;-75
2023/04/06 10:24:06;;;;;;;7.72;4.68;;;9.10;99.90;;;;;;5032674;28;20057;-76
2023/04/06 10:26:31;;;;;;;8.93;5.20;;;9.10;99.90;;;;;;5005282;28;20052;-76
2023/04/06 10:29:03;;;;;;;7.32;4.75;;;9.20;99.90;;;;;;5035689;28;20041;-77
2023/04/06 10:31:29;;;;;;;5.17;4.67;;;9.30;99.90;;;;;;5044202;28;20068;-74
2023/04/06 10:33:59;;;;;;;6.63;4.88;;;9.30;99.90;;;;;;5044845;28;20546;-74
2023/04/06 10:36:27;;;;;;;12.07;4.90;;;9.30;99.90;;;;;;5044803;28;20049;-76
2023/04/06 10:39:02;;;;;;;5.20;4.30;;;9.50;99.90;;;;;;5043187;28;20541;-75
2023/04/06 10:41:42;;;;;;;5.25;4.38;;;9.60;99.90;;;;;;5041852;28;20048;-74
2023/04/06 10:44:16;;;;;;;8.50;5.03;;;9.60;99.90;;;;;;5047311;28;20052;-76
2023/04/06 10:46:53;;;;;;;23.15;5.15;;;9.70;99.90;;;;;;5056894;28;20047;-76
2023/04/06 10:49:19;;;;;;;7.72;4.80;;;9.60;99.90;;;;;;5053799;28;20045;-75
2023/04/06 10:51:45;;;;;;;10.57;5.53;;;9.70;99.90;;;;;;5041077;28;20076;-76
2023/04/06 10:54:12;;;;;;;9.10;4.70;;;9.70;99.90;;;;;;5057382;28;20137;-75
2023/04/06 10:56:38;;;;;;;15.10;6.47;;;9.80;99.90;;;;;;5036608;28;20049;-75
2023/04/06 10:59:16;;;;;;;12.70;5.10;;;9.80;99.90;;;;;;5052136;28;20077;-76
2023/04/06 11:01:45;;;;;;;11.05;6.70;;;9.90;99.90;;;;;;5044339;28;20053;-75
2023/04/06 11:04:15;;;;;;;8.93;6.60;;;10.00;99.90;;;;;;5056557;28;20052;-77
2023/04/06 11:06:40;;;;;;;12.52;5.95;;;10.10;99.90;;;;;;5066069;28;20404;-73
2023/04/06 11:09:06;;;;;;;7.88;4.95;;;10.10;99.90;;;;;;5054667;28;20052;-76
2023/04/06 11:11:31;;;;;;;11.23;6.13;;;10.20;99.90;;;;;;5045234;28;20045;-76
2023/04/06 11:13:59;;;;;;;13.05;6.65;;;10.20;99.90;;;;;;5044250;28;20713;-76
2023/04/06 11:16:30;;;;;;;15.23;5.90;;;10.30;99.90;;;;;;5038029;28;20044;-75
2023/04/06 11:19:05;;;;;;;10.43;4.90;;;10.30;99.90;;;;;;5026949;28;20052;-75
2023/04/06 11:21:33;;;;;;;10.52;5.45;;;10.30;99.90;;;;;;5044275;28;20045;-76
2023/04/06 11:24:15;;;;;;;12.65;6.40;;;10.40;99.90;;;;;;5037757;28;20034;-77
2023/04/06 11:26:48;;;;;;;19.63;6.47;;;10.40;99.90;;;;;;5037195;28;20051;-76
2023/04/06 11:29:15;;;;;;;14.32;6.05;;;10.50;99.90;;;;;;5042322;28;20040;-76
2023/04/06 11:32:05;;;;;;;9.05;5.03;;;10.50;99.90;;;;;;5040380;28;20061;-77
2023/04/06 11:34:35;;;;;;;9.75;5.10;;;10.60;99.90;;;;;;5023833;28;20052;-77
2023/04/06 11:37:05;;;;;;;7.93;4.65;;;10.60;99.90;;;;;;5024109;28;20530;-77
2023/04/06 11:39:32;;;;;;;21.27;5.75;;;10.70;99.90;;;;;;5045714;28;20053;-77
2023/04/06 11:42:02;;;;;;;14.18;6.22;;;10.80;99.90;;;;;;5044056;28;20107;-76
2023/04/06 11:44:39;;;;;;;11.35;6.10;;;10.80;99.90;;;;;;5045407;28;20084;-73
2023/04/06 11:47:07;;;;;;;9.93;5.68;;;10.80;99.90;;;;;;5022296;28;20083;-76
2023/04/06 11:49:36;;;;;;;7.93;5.63;;;10.80;99.90;;;;;;5044026;28;20041;-76
2023/04/06 11:52:13;;;;;;;9.38;6.28;;;10.90;99.90;;;;;;5044638;28;20091;-76
2023/04/06 11:54:39;;;;;;;11.23;5.18;;;10.90;99.90;;;;;;5043444;28;20120;-75
2023/04/06 11:57:05;;;;;;;10.77;6.00;;;10.90;99.90;;;;;;5045710;28;20475;-78
2023/04/06 11:59:31;;;;;;;16.05;5.30;;;11.00;99.90;;;;;;5027358;28;20594;-76
2023/04/06 12:01:57;;;;;;;9.13;4.97;;;11.00;99.90;;;;;;5045476;28;20044;-77
2023/04/06 12:04:24;;;;;;;12.40;7.10;;;11.10;99.90;;;;;;5064143;28;20130;-73
2023/04/06 12:06:50;;;;;;;8.90;5.32;;;11.00;99.90;;;;;;5053975;28;20484;-75
2023/04/06 12:09:19;;;;;;;8.65;5.90;;;11.10;99.90;;;;;;5041763;28;20033;-76
2023/04/06 12:11:45;;;;;;;10.20;5.82;;;11.10;99.90;;;;;;5037958;28;20072;-77
2023/04/06 12:14:11;;;;;;;10.05;5.85;;;11.10;99.90;;;;;;5043797;28;20077;-74
2023/04/06 12:16:37;;;;;;;12.65;6.60;;;11.10;99.90;;;;;;5045031;28;20403;-77
2023/04/06 12:19:03;;;;;;;10.15;5.45;;;11.10;99.90;;;;;;5039094;28;20052;-77
2023/04/06 12:21:30;;;;;;;12.48;6.00;;;11.10;99.90;;;;;;5043402;28;20045;-79
2023/04/06 12:23:56;;;;;;;10.38;4.82;;;11.10;99.90;;;;;;5044419;28;20037;-78
2023/04/06 12:26:22;;;;;;;10.80;6.22;;;11.10;99.90;;;;;;5043883;28;20104;-77
2023/04/06 12:28:48;;;;;;;7.10;5.05;;;11.10;99.90;;;;;;5044289;28;20087;-77
2023/04/06 12:31:18;;;;;;;12.10;5.10;;;11.10;99.90;;;;;;5044608;28;20045;-78
2023/04/06 12:33:46;;;;;;;9.82;4.32;;;11.10;99.90;;;;;;5043352;28;20450;-77
2023/04/06 12:36:18;;;;;;;5.38;2.85;;;11.10;99.90;;;;;;5044613;28;20052;-76
2023/04/06 12:38:45;;;;;;;6.53;4.13;;;11.10;99.90;;;;;;5043988;28;20045;-75
2023/04/06 12:41:11;;;;;;;5.82;3.55;;;11.10;99.90;;;;;;5044845;28;20033;-78
2023/04/06 12:43:37;;;;;;;8.77;3.63;;;11.10;99.90;;;;;;5043842;28;20253;-78
2023/04/06 12:46:03;;;;;;;7.72;4.85;;;11.20;99.90;;;;;;5044445;28;20037;-77
2023/04/06 12:48:29;;;;;;;6.43;3.70;;;11.20;99.90;;;;;;5026432;28;20418;-78
2023/04/06 12:51:00;;;;;;;6.20;3.40;;;11.20;99.90;;;;;;5024049;28;20068;-77
2023/04/06 12:53:26;;;;;;;6.47;3.20;;;11.30;99.90;;;;;;5023727;28;20045;-76